Terminal Aerodrome Forecast
Issued by NWS

Home | Current Version | Previous Version | Text Only | Print | Product List | Glossary On
Versions: 1 2 3 4 5 6 7 8 9 10 11 12 13 14
718
FTUS42 KTBW 231750
TAFPGD
TAF
KPGD 231750Z 2318/2418 VRB03KT P6SM SCT040 BKN250
     FM232000 26008KT P6SM VCTS BKN045CB BKN250
      TEMPO 2320/2323 VRB15G25KT 3SM TSRA BKN025CB
     FM240200 VRB03KT P6SM SCT035 BKN120
     FM240600 00000KT P6SM SCT120 BKN250
     FM241500 VRB04KT P6SM SCT030 SCT250=

USA.gov is the U.S. government's official web portal to all federal, state and local government web resources and services.